Los Angeles, CA (90077)

8:03 AM PDT on October 01, 2014 (GMT -0700)
Bel Air | Change Station
CLOSE
Current Station
Personal Weather Station
Location: Los Angeles, CA
Elevation: 975 ft
Nearby Weather Stations
Active Advisory: Special Statement

Elev 975 ft 34.12 °N, 118.48 °W | Updated 43 seconds ago

Clear
Clear
59.5 °F
Feels Like 59.5 °F
N
0.0
Wind Variable Wind from East
Gusts 0.0 mph

Today
High -- | Low -- °F
--% Chance of Precip.
Yesterday
High -- | Low -- °F
Precip. -- in
6:48 AM 6:37 PM
Waxing Crescent, 48% visible
Pressure 29.86 in
Visibility 9.0 miles
Clouds Clear
Dew Point 57 °F
Humidity 90%
Rainfall 0.00 in
Snow Depth 0 in , 2 in , 0 in
UV 0.0 out of 12
Pollen 5.50 out of 12
Ozone Good
Flu Activity Not available.
METAR KSMO 301451Z 00000KT 9SM CLR 19/13 A2987 RMK AO2 SLP112 T01940133 51007 $

More Conditions Fewer Conditions

Pressure 29.86 in
Visibility 9.0 miles
Clouds Clear
Dew Point 57 °F
Humidity 90%
Rainfall 0.00 in
Snow Depth 0 in , 2 in , 0 in
UV 0.0 out of 12
Pollen 5.50 out of 12
Ozone Good
Flu Activity Not available.
METAR KSMO 301451Z 00000KT 9SM CLR 19/13 A2987 RMK AO2 SLP112 T01940133 51007 $

More Conditions Fewer Conditions

10-Day Weather Forecast

Almanac

Astronomy

Oct. 01, 2014 Rise Set
Actual Time 6:48 AM PDT 6:37 PM PDT
Civil Twilight 6:23 AM PDT 7:02 PM PDT
Nautical Twilight 5:54 AM PDT 7:31 PM PDT
Astronomical Twilight 5:25 AM PDT 8:00 PM PDT
Moon 1:42 PM PDT No Moon Set
Length of Visible Light 12h 39m
Length of Day
11h 49m
Tomorrow will be 2m 6s shorter.
Waxing Crescent, 48% of the Moon is Illuminated
Today
Waxing Crescent
Oct 1
First Quarter
Oct 8
Full
Oct 15
Last Quarter
Oct 23
New

Today's Extremes

State Highs State Lows

Community

WunderPhotos

Upload Photos

1,757,962 photos uploaded!

Nearby

Air Quality

  Air Quality AQ Index Pollutant
Yesterday Good
OZONE
Current Good
OZONE
Wednesday Good
PM10
Wednesday Good
OZONE
Wednesday Good
CO
Wednesday Good
NO2

Snow Depth

Station Depth Elevation
Adin Mountain 0 in 6200 ft
Summit Meadow 2 in 9122 ft
Hagan's Meadow 0 in 8000 ft
Rubicon #2 1 in 7500 ft
Blue Lakes 1 in 8000 ft

Earthquake Activity

City Distance Mag. Time & Date
Shandon, California 158 miles 2.9 5:34 PM PDT
2014-09-30
Avalon, California 70 miles 2.6 1:28 PM PDT
2014-09-30
Minimum magnitude displayed is 2.5.

Coastal Water Temperatures

Place Temperature
Santa Monica Pier 69.1 °F
Los Angeles, CA 66.9 °F
La Jolla, CA 72.0 °F

Nearby Weather Stations